createdAt,value
2018-04-01T00:01:01.511Z,97676.67
2018-04-01T00:03:28.664Z,97680.92
2018-04-01T00:05:55.696Z,97676.67
2018-04-01T00:08:22.722Z,97670.31
2018-04-01T00:10:49.865Z,97666.16
2018-04-01T00:13:16.910Z,97670.42
2018-04-01T00:15:44.015Z,97673.03
2018-04-01T00:18:11.104Z,97657.12
2018-04-01T00:20:38.148Z,97647.42
2018-04-01T00:23:05.181Z,97644.97
2018-04-01T00:25:32.288Z,97633.72
2018-04-01T00:27:59.323Z,97640.91
2018-04-01T00:30:26.362Z,97633.65
2018-04-01T00:32:53.542Z,97613.65
2018-04-01T00:35:20.644Z,97612.84
2018-04-01T00:37:47.806Z,97615.84
2018-04-01T00:40:14.896Z,97602.42
2018-04-01T00:42:41.935Z,97607.00
2018-04-01T00:45:08.987Z,97600.25
2018-04-01T00:47:36.161Z,97599.19
2018-04-01T00:50:03.198Z,97597.12
2018-04-01T00:52:30.234Z,97592.33
2018-04-01T00:54:57.378Z,97588.67
2018-04-01T00:57:24.392Z,97577.55
2018-04-01T00:59:51.451Z,97584.39
2018-04-01T01:02:18.586Z,97578.27
2018-04-01T01:04:45.688Z,97566.88
2018-04-01T01:07:12.786Z,97568.11
2018-04-01T01:09:40.050Z,97559.56
2018-04-01T01:12:07.176Z,97536.88
2018-04-01T01:14:34.231Z,97531.45
2018-04-01T01:17:02.256Z,97529.08
2018-04-01T01:19:29.293Z,97532.19
2018-04-01T01:21:56.336Z,97528.12
2018-04-01T01:24:23.515Z,97526.20
2018-04-01T01:26:50.549Z,97529.91
2018-04-01T01:29:17.660Z,97536.59
2018-04-01T01:31:44.751Z,97535.33
2018-04-01T01:34:11.846Z,97536.51
2018-04-01T01:36:38.896Z,97530.16
2018-04-01T01:39:06.088Z,97525.27
2018-04-01T01:41:33.178Z,97525.70
2018-04-01T01:44:00.283Z,97523.46
2018-04-01T01:46:27.441Z,97530.16
2018-04-01T01:48:54.759Z,97525.69
2018-04-01T01:51:21.858Z,97527.48
2018-04-01T01:53:50.090Z,97540.09
2018-04-01T01:56:17.236Z,97532.39
2018-04-01T01:58:44.286Z,97540.09
2018-04-01T02:01:11.395Z,97519.82
2018-04-01T02:03:38.442Z,97513.06
2018-04-01T02:06:05.482Z,97509.94
2018-04-01T02:08:32.613Z,97508.92
2018-04-01T02:10:59.719Z,97496.95
2018-04-01T02:13:26.771Z,97486.14
2018-04-01T02:15:53.953Z,97471.50
2018-04-01T02:18:20.981Z,97463.41
2018-04-01T02:20:48.100Z,97467.45
2018-04-01T02:23:15.341Z,97457.45
2018-04-01T02:25:42.443Z,97455.17
2018-04-01T02:28:09.486Z,97445.39
2018-04-01T02:30:36.697Z,97451.80
2018-04-01T02:33:03.736Z,97442.40
2018-04-01T02:35:30.873Z,97435.94
2018-04-01T02:37:58.041Z,97436.25
2018-04-01T02:40:25.083Z,97429.16
2018-04-01T02:42:52.199Z,97412.80
2018-04-01T02:45:19.360Z,97413.95
2018-04-01T02:47:46.394Z,97404.58
2018-04-01T02:50:13.510Z,97399.69
2018-04-01T02:52:40.733Z,97395.84
2018-04-01T02:55:07.853Z,97388.52
2018-04-01T02:57:34.895Z,97377.51
2018-04-01T03:00:01.980Z,97381.72
2018-04-01T03:02:29.044Z,97374.89
2018-04-01T03:04:56.086Z,97373.23
2018-04-01T03:07:23.269Z,97376.31
2018-04-01T03:09:50.324Z,97374.90
2018-04-01T03:12:17.384Z,97363.72
2018-04-01T03:14:44.627Z,97351.58
2018-04-01T03:17:11.670Z,97350.12
2018-04-01T03:19:38.701Z,97356.47
2018-04-01T03:22:05.802Z,97354.45
2018-04-01T03:24:32.842Z,97356.81
2018-04-01T03:27:00.005Z,97339.17
2018-04-01T03:29:27.189Z,97327.42
2018-04-01T03:31:54.304Z,97303.05
2018-04-01T03:34:21.344Z,97308.98
2018-04-01T03:36:48.592Z,97309.20
2018-04-01T03:39:15.693Z,97299.92
2018-04-01T03:41:42.802Z,97290.83
2018-04-01T03:44:09.997Z,97294.99
2018-04-01T03:46:37.029Z,97299.16
2018-04-01T03:49:04.081Z,97303.18
2018-04-01T03:51:31.242Z,97296.40
2018-04-01T03:53:58.344Z,97300.31
2018-04-01T03:56:25.396Z,97298.33
2018-04-01T03:58:52.498Z,97302.50
2018-04-01T04:01:19.602Z,97298.23
2018-04-01T04:03:46.737Z,97286.34
2018-04-01T04:06:14.020Z,97289.45
2018-04-01T04:08:41.091Z,97279.73
2018-04-01T04:11:08.161Z,97292.38
2018-04-01T04:13:35.346Z,97290.77
2018-04-01T04:16:02.384Z,97293.38
2018-04-01T04:18:29.419Z,97297.22
2018-04-01T04:20:56.594Z,97304.45
2018-04-01T04:23:23.682Z,97306.58
2018-04-01T04:25:50.730Z,97294.80
2018-04-01T04:28:17.838Z,97281.00
2018-04-01T04:30:44.879Z,97267.39
2018-04-01T04:33:11.974Z,97268.33
2018-04-01T04:35:39.119Z,97269.16
2018-04-01T04:38:06.160Z,97262.14
2018-04-01T04:40:33.208Z,97267.05
2018-04-01T04:43:00.378Z,97259.04
2018-04-01T04:45:27.407Z,97264.33
2018-04-01T04:47:54.444Z,97273.09
2018-04-01T04:50:21.533Z,97270.41
2018-04-01T04:52:49.006Z,97256.08
2018-04-01T04:55:16.081Z,97253.49
2018-04-01T04:57:43.246Z,97244.12
2018-04-01T05:00:10.278Z,97232.91
2018-04-01T05:02:37.310Z,97229.72
2018-04-01T05:05:04.402Z,97232.78
2018-04-01T05:07:31.438Z,97237.94
2018-04-01T05:09:58.482Z,97242.50
2018-04-01T05:12:25.642Z,97240.95
2018-04-01T05:14:52.685Z,97243.52
2018-04-01T05:17:19.713Z,97248.13
2018-04-01T05:19:46.990Z,97261.62
2018-04-01T05:22:14.139Z,97251.02
2018-04-01T05:24:41.176Z,97245.19
2018-04-01T05:27:08.350Z,97250.21
2018-04-01T05:29:35.454Z,97240.11
2018-04-01T05:32:02.559Z,97227.63
2018-04-01T05:34:29.650Z,97236.03
2018-04-01T05:36:57.182Z,97227.59
2018-04-01T05:39:24.218Z,97235.06
2018-04-01T05:41:51.304Z,97235.75
2018-04-01T05:44:18.443Z,97210.91
2018-04-01T05:46:45.489Z,97223.63
2018-04-01T05:49:13.062Z,97215.12
2018-04-01T05:51:40.162Z,97196.60
2018-04-01T05:54:07.279Z,97186.01
2018-04-01T05:56:34.373Z,97186.89
2018-04-01T05:59:01.479Z,97184.77
2018-04-01T06:01:28.571Z,97197.73
2018-04-01T06:03:55.665Z,97183.75
2018-04-01T06:06:22.734Z,97200.50
2018-04-01T06:08:49.890Z,97183.64
2018-04-01T06:11:17.123Z,97187.87
2018-04-01T06:13:44.222Z,97176.95
2018-04-01T06:16:11.261Z,97162.80
2018-04-01T06:18:39.210Z,97165.05
2018-04-01T06:21:06.581Z,97193.97
2018-04-01T06:23:33.673Z,97171.34
2018-04-01T06:26:00.839Z,97160.34
2018-04-01T06:28:28.775Z,97173.11
2018-04-01T06:30:55.837Z,97164.31
2018-04-01T06:33:23.016Z,97149.09
2018-04-01T06:35:50.038Z,97166.37
2018-04-01T06:38:17.138Z,97164.67
2018-04-01T06:40:44.291Z,97169.63
2018-04-01T06:43:11.331Z,97169.73
2018-04-01T06:45:38.373Z,97165.06
2018-04-01T06:48:05.463Z,97172.02
2018-04-01T06:50:32.573Z,97165.10
2018-04-01T06:52:59.610Z,97163.02
2018-04-01T06:55:26.806Z,97164.67
2018-04-01T06:57:53.931Z,97190.73
2018-04-01T07:00:21.018Z,97174.20
2018-04-01T07:02:48.119Z,97188.77
2018-04-01T07:05:15.145Z,97194.23
2018-04-01T07:07:42.199Z,97194.42
2018-04-01T07:10:09.398Z,97207.02
2018-04-01T07:12:36.489Z,97206.44
2018-04-01T07:15:03.526Z,97183.64
2018-04-01T07:17:30.705Z,97166.75
2018-04-01T07:19:57.741Z,97168.33
2018-04-01T07:22:24.775Z,97181.00
2018-04-01T07:24:51.884Z,97182.83
2018-04-01T07:27:18.987Z,97193.45
2018-04-01T07:29:46.041Z,97189.61
2018-04-01T07:32:13.138Z,97199.56
2018-04-01T07:34:40.226Z,97181.70
2018-04-01T07:37:08.043Z,97207.81
2018-04-01T07:39:35.135Z,97204.18
2018-04-01T07:42:02.167Z,97219.05
2018-04-01T07:44:29.282Z,97203.46
2018-04-01T07:46:56.453Z,97234.04
2018-04-01T07:49:23.553Z,97227.20
2018-04-01T07:51:50.684Z,97224.39
2018-04-01T07:54:17.768Z,97220.31
2018-04-01T07:56:45.310Z,97227.29
2018-04-01T07:59:12.367Z,97243.02
2018-04-01T08:01:39.542Z,97258.73
2018-04-01T08:04:06.574Z,97245.47
2018-04-01T08:06:33.640Z,97236.81
2018-04-01T08:09:01.717Z,97247.09
2018-04-01T08:11:28.752Z,97242.08
2018-04-01T08:13:55.848Z,97235.20
2018-04-01T08:16:22.985Z,97237.39
2018-04-01T08:18:50.027Z,97230.07
2018-04-01T08:21:17.066Z,97236.63
2018-04-01T08:23:44.254Z,97241.70
2018-04-01T08:26:11.302Z,97246.48
2018-04-01T08:28:38.418Z,97247.22
2018-04-01T08:31:05.686Z,97247.41
2018-04-01T08:33:32.723Z,97244.61
2018-04-01T08:36:00.377Z,97254.89
2018-04-01T08:38:27.477Z,97250.90
2018-04-01T08:40:54.604Z,97249.95
2018-04-01T08:43:21.699Z,97263.79
2018-04-01T08:45:48.923Z,97272.56
2018-04-01T08:48:15.967Z,97276.62
2018-04-01T08:50:43.006Z,97280.73
2018-04-01T08:53:10.228Z,97277.22
2018-04-01T08:55:37.318Z,97272.34
2018-04-01T08:58:04.580Z,97259.63
2018-04-01T09:00:31.670Z,97265.76
2018-04-01T09:02:58.722Z,97254.78
2018-04-01T09:05:25.764Z,97252.59
2018-04-01T09:07:52.958Z,97266.05
2018-04-01T09:10:19.981Z,97263.91
2018-04-01T09:12:47.012Z,97260.77
2018-04-01T09:15:14.101Z,97292.02
2018-04-01T09:17:41.134Z,97276.90
2018-04-01T09:20:08.241Z,97278.27
2018-04-01T09:22:35.327Z,97278.39
2018-04-01T09:25:02.368Z,97266.60
2018-04-01T09:27:29.466Z,97248.31
2018-04-01T09:29:56.640Z,97245.26
2018-04-01T09:32:23.689Z,97252.16
2018-04-01T09:34:50.760Z,97252.55
2018-04-01T09:37:18.007Z,97236.48
2018-04-01T09:39:45.048Z,97233.84
2018-04-01T09:42:12.078Z,97245.44
2018-04-01T09:44:39.149Z,97239.70
2018-04-01T09:47:06.191Z,97226.28
2018-04-01T09:49:33.290Z,97222.60
2018-04-01T09:52:00.366Z,97221.58
2018-04-01T09:54:27.407Z,97225.55
2018-04-01T09:56:55.415Z,97208.27
2018-04-01T09:59:23.495Z,97201.39
2018-04-01T10:01:51.114Z,97210.09
2018-04-01T10:04:18.762Z,97206.20
2018-04-01T10:06:46.390Z,97198.58
2018-04-01T10:09:13.962Z,97206.40
2018-04-01T10:11:41.597Z,97214.99
2018-04-01T10:14:09.318Z,97208.83
2018-04-01T10:16:36.893Z,97221.34
2018-04-01T10:19:04.498Z,97215.82
2018-04-01T10:21:32.866Z,97206.66
2018-04-01T10:24:00.437Z,97211.16
2018-04-01T10:26:28.010Z,97217.54
2018-04-01T10:28:55.715Z,97212.80
2018-04-01T10:31:23.423Z,97219.13
2018-04-01T10:33:51.011Z,97223.04
2018-04-01T10:36:18.786Z,97224.01
2018-04-01T10:38:46.420Z,97237.41
2018-04-01T10:41:14.002Z,97233.70
2018-04-01T10:43:43.497Z,97229.86
2018-04-01T10:46:11.135Z,97225.95
2018-04-01T10:48:38.710Z,97227.53
2018-04-01T10:51:06.479Z,97223.92
2018-04-01T10:53:34.150Z,97226.47
2018-04-01T10:56:01.258Z,97224.72
2018-04-01T10:58:28.407Z,97223.45
2018-04-01T11:00:55.582Z,97228.77
2018-04-01T11:03:22.719Z,97225.48
2018-04-01T11:05:49.795Z,97217.86
2018-04-01T11:08:16.889Z,97217.24
2018-04-01T11:10:43.921Z,97209.77
2018-04-01T11:13:11.281Z,97202.25
2018-04-01T11:15:38.226Z,97202.80
2018-04-01T11:18:05.259Z,97201.56
2018-04-01T11:20:32.415Z,97192.41
2018-04-01T11:22:59.515Z,97204.63
2018-04-01T11:25:26.623Z,97199.84
2018-04-01T11:27:53.705Z,97209.31
2018-04-01T11:30:20.795Z,97191.72
2018-04-01T11:32:47.826Z,97180.56
2018-04-01T11:35:14.994Z,97175.52
2018-04-01T11:37:42.091Z,97178.53
2018-04-01T11:40:09.122Z,97170.73
2018-04-01T11:42:36.350Z,97158.91
2018-04-01T11:45:03.446Z,97164.83
2018-04-01T11:47:30.548Z,97158.02
2018-04-01T11:49:57.646Z,97157.89
2018-04-01T11:52:25.376Z,97157.19
2018-04-01T11:54:52.414Z,97145.70
2018-04-01T11:57:19.509Z,97138.77
2018-04-01T11:59:46.546Z,97130.88
2018-04-01T12:02:13.736Z,97126.87
2018-04-01T12:04:40.886Z,97124.90
2018-04-01T12:07:08.764Z,97118.55
2018-04-01T12:09:35.798Z,97114.77
2018-04-01T12:12:02.930Z,97109.75
2018-04-01T12:14:29.976Z,97114.88
2018-04-01T12:16:57.074Z,97098.59
2018-04-01T12:19:24.477Z,97104.30
2018-04-01T12:21:51.579Z,97105.14
2018-04-01T12:24:18.617Z,97100.16
2018-04-01T12:26:45.701Z,97099.97
2018-04-01T12:29:13.228Z,97095.55
2018-04-01T12:31:40.335Z,97108.06
2018-04-01T12:34:07.514Z,97107.47
2018-04-01T12:36:34.552Z,97095.59
2018-04-01T12:39:01.586Z,97095.81
2018-04-01T12:41:29.406Z,97087.87
2018-04-01T12:43:56.436Z,97102.12
2018-04-01T12:46:23.489Z,97102.11
2018-04-01T12:48:50.931Z,97113.25
2018-04-01T12:51:18.052Z,97097.45
2018-04-01T12:53:45.098Z,97102.75
2018-04-01T12:56:12.233Z,97093.11
2018-04-01T12:58:39.266Z,97099.06
2018-04-01T13:01:06.367Z,97093.64
2018-04-01T13:03:33.613Z,97095.71
2018-04-01T13:06:00.635Z,97093.75
2018-04-01T13:08:27.704Z,97090.97
2018-04-01T13:10:54.841Z,97085.28
2018-04-01T13:13:22.611Z,97095.06
2018-04-01T13:15:49.678Z,97103.59
2018-04-01T13:18:16.760Z,97097.51
2018-04-01T13:20:43.866Z,97082.95
2018-04-01T13:23:10.898Z,97073.42
2018-04-01T13:25:39.421Z,97082.98
2018-04-01T13:28:06.453Z,97089.20
2018-04-01T13:30:33.550Z,97098.43
2018-04-01T13:33:00.646Z,97092.44
2018-04-01T13:35:27.685Z,97099.19
2018-04-01T13:37:54.792Z,97093.80
2018-04-01T13:40:21.893Z,97087.27
2018-04-01T13:42:48.924Z,97079.61
2018-04-01T13:45:15.950Z,97094.80
2018-04-01T13:47:43.100Z,97087.98
2018-04-01T13:50:10.199Z,97086.27
2018-04-01T13:52:37.270Z,97091.59
2018-04-01T13:55:04.598Z,97095.88
2018-04-01T13:57:31.671Z,97092.33
2018-04-01T13:59:58.770Z,97094.45
2018-04-01T14:02:25.947Z,97096.89
2018-04-01T14:04:53.046Z,97101.06
2018-04-01T14:07:20.091Z,97103.78
2018-04-01T14:09:47.281Z,97089.23
2018-04-01T14:12:14.385Z,97090.97
2018-04-01T14:14:41.483Z,97089.18
2018-04-01T14:17:08.562Z,97086.87
2018-04-01T14:19:35.596Z,97086.92
2018-04-01T14:22:02.671Z,97084.19
2018-04-01T14:24:29.803Z,97076.70
2018-04-01T14:26:56.907Z,97072.88
2018-04-01T14:29:23.977Z,97079.08
2018-04-01T14:31:52.185Z,97072.73
2018-04-01T14:34:19.213Z,97079.39
2018-04-01T14:36:46.245Z,97085.06
2018-04-01T14:39:13.550Z,97098.31
2018-04-01T14:41:40.591Z,97107.03
2018-04-01T14:44:07.631Z,97110.27
2018-04-01T14:46:34.790Z,97123.09
2018-04-01T14:49:01.811Z,97116.26
2018-04-01T14:51:28.855Z,97128.58
2018-04-01T14:53:56.007Z,97148.29
2018-04-01T14:56:23.097Z,97156.08
2018-04-01T14:58:50.201Z,97170.03
2018-04-01T15:01:17.343Z,97203.03
2018-04-01T15:03:44.372Z,97185.67
2018-04-01T15:06:11.554Z,97190.88
2018-04-01T15:08:38.742Z,97188.69
2018-04-01T15:11:05.775Z,97199.86
2018-04-01T15:13:32.837Z,97214.50
2018-04-01T15:15:59.978Z,97227.53
2018-04-01T15:18:27.019Z,97247.45
2018-04-01T15:20:54.059Z,97266.66
2018-04-01T15:23:21.138Z,97264.00
2018-04-01T15:25:48.690Z,97259.77
2018-04-01T15:28:15.724Z,97253.62
2018-04-01T15:30:42.807Z,97240.20
2018-04-01T15:33:09.874Z,97242.02
2018-04-01T15:35:36.909Z,97236.05
2018-04-01T15:38:04.058Z,97237.27
2018-04-01T15:40:31.108Z,97234.92
2018-04-01T15:42:59.128Z,97238.09
2018-04-01T15:45:26.201Z,97249.13
2018-04-01T15:47:53.244Z,97256.22
2018-04-01T15:50:20.278Z,97258.89
2018-04-01T15:52:47.560Z,97249.64
2018-04-01T15:55:14.665Z,97247.45
2018-04-01T15:57:41.754Z,97249.25
2018-04-01T16:00:08.904Z,97246.65
2018-04-01T16:02:35.944Z,97238.61
2018-04-01T16:05:03.010Z,97244.45
2018-04-01T16:07:30.219Z,97231.52
2018-04-01T16:09:57.326Z,97235.06
2018-04-01T16:12:24.350Z,97239.19
2018-04-01T16:14:51.594Z,97246.69
2018-04-01T16:17:18.738Z,97243.27
2018-04-01T16:19:45.779Z,97249.45
2018-04-01T16:22:13.130Z,97258.82
2018-04-01T16:24:40.157Z,97263.28
2018-04-01T16:27:07.271Z,97265.31
2018-04-01T16:29:34.363Z,97269.16
2018-04-01T16:32:02.120Z,97270.83
2018-04-01T16:34:29.234Z,97274.86
2018-04-01T16:36:56.337Z,97281.08
2018-04-01T16:39:23.455Z,97280.20
2018-04-01T16:41:50.511Z,97278.86
2018-04-01T16:44:17.715Z,97276.65
2018-04-01T16:46:44.762Z,97280.31
2018-04-01T16:49:11.878Z,97282.97
2018-04-01T16:51:39.003Z,97292.03
2018-04-01T16:54:06.112Z,97287.14
2018-04-01T16:56:33.164Z,97308.01
2018-04-01T16:59:00.588Z,97312.80
2018-04-01T17:01:27.690Z,97331.48
2018-04-01T17:03:54.726Z,97346.52
2018-04-01T17:06:21.806Z,97350.42
2018-04-01T17:08:49.395Z,97350.02
2018-04-01T17:11:16.427Z,97357.05
2018-04-01T17:13:43.599Z,97359.84
2018-04-01T17:16:11.262Z,97360.73
2018-04-01T17:18:38.336Z,97354.98
2018-04-01T17:21:05.482Z,97367.21
2018-04-01T17:23:32.524Z,97356.15
2018-04-01T17:25:59.584Z,97357.79
2018-04-01T17:28:26.726Z,97356.85
2018-04-01T17:30:53.756Z,97358.66
2018-04-01T17:33:20.800Z,97353.45
2018-04-01T17:35:47.890Z,97351.86
2018-04-01T17:38:14.975Z,97370.52
2018-04-01T17:40:42.008Z,97367.12
2018-04-01T17:43:09.347Z,97367.75
2018-04-01T17:45:36.395Z,97369.59
2018-04-01T17:48:03.491Z,97366.77
2018-04-01T17:50:30.588Z,97347.86
2018-04-01T17:52:57.628Z,97336.52
2018-04-01T17:55:24.726Z,97345.36
2018-04-01T17:57:51.810Z,97345.30
2018-04-01T18:00:18.920Z,97359.45
2018-04-01T18:02:45.982Z,97357.13
2018-04-01T18:05:13.086Z,97359.00
2018-04-01T18:07:40.109Z,97362.27
2018-04-01T18:10:07.273Z,97377.67
2018-04-01T18:12:34.351Z,97391.73
2018-04-01T18:15:01.428Z,97386.87
2018-04-01T18:17:28.469Z,97387.60
2018-04-01T18:19:55.662Z,97395.92
2018-04-01T18:22:22.694Z,97399.05
2018-04-01T18:24:49.826Z,97402.17
2018-04-01T18:27:16.983Z,97405.30
2018-04-01T18:29:44.077Z,97405.23
2018-04-01T18:32:11.265Z,97408.53
2018-04-01T18:34:38.392Z,97408.56
2018-04-01T18:37:05.511Z,97423.13
2018-04-01T18:39:32.618Z,97425.66
2018-04-01T18:41:59.765Z,97432.19
2018-04-01T18:44:26.794Z,97440.94
2018-04-01T18:46:53.831Z,97443.44
2018-04-01T18:49:21.202Z,97444.47
2018-04-01T18:51:48.251Z,97443.13
2018-04-01T18:54:15.289Z,97442.58
2018-04-01T18:56:42.385Z,97443.62
2018-04-01T18:59:10.350Z,97454.97
2018-04-01T19:01:37.382Z,97456.45
2018-04-01T19:04:04.523Z,97451.66
2018-04-01T19:06:31.550Z,97459.64
2018-04-01T19:08:58.586Z,97454.72
2018-04-01T19:11:25.888Z,97462.84
2018-04-01T19:13:52.934Z,97465.56
2018-04-01T19:16:21.179Z,97465.98
2018-04-01T19:18:48.834Z,97480.75
2018-04-01T19:21:16.442Z,97482.42
2018-04-01T19:23:44.011Z,97487.00
2018-04-01T19:26:11.834Z,97483.90
2018-04-01T19:28:39.413Z,97488.30
2018-04-01T19:31:07.000Z,97490.52
2018-04-01T19:33:34.702Z,97488.53
2018-04-01T19:36:02.630Z,97492.09
2018-04-01T19:38:30.194Z,97489.28
2018-04-01T19:40:57.926Z,97485.14
2018-04-01T19:43:25.565Z,97498.88
2018-04-01T19:45:53.195Z,97493.59
2018-04-01T19:48:20.816Z,97502.34
2018-04-01T19:50:49.086Z,97512.74
2018-04-01T19:53:16.710Z,97511.64
2018-04-01T19:55:44.409Z,97509.88
2018-04-01T19:58:12.067Z,97511.41
2018-04-01T20:00:39.643Z,97507.37
2018-04-01T20:03:07.918Z,97509.30
2018-04-01T20:05:35.491Z,97509.63
2018-04-01T20:08:03.127Z,97514.18
2018-04-01T20:10:30.747Z,97515.53
2018-04-01T20:12:58.574Z,97519.38
2018-04-01T20:15:26.218Z,97535.94
2018-04-01T20:17:53.836Z,97543.63
2018-04-01T20:20:21.428Z,97549.37
2018-04-01T20:22:49.043Z,97549.81
2018-04-01T20:25:16.657Z,97559.41
2018-04-01T20:27:44.233Z,97555.23
2018-04-01T20:30:11.812Z,97556.91
2018-04-01T20:32:39.437Z,97557.54
2018-04-01T20:35:07.028Z,97563.56
2018-04-01T20:37:35.292Z,97562.33
2018-04-01T20:40:02.998Z,97557.33
2018-04-01T20:42:30.572Z,97555.87
2018-04-01T20:44:58.207Z,97555.14
2018-04-01T20:47:26.357Z,97557.23
2018-04-01T20:49:53.933Z,97564.34
2018-04-01T20:52:21.571Z,97562.67
2018-04-01T20:54:49.648Z,97572.77
2018-04-01T20:57:17.243Z,97574.72
2018-04-01T20:59:44.821Z,97573.47
2018-04-01T21:02:12.441Z,97586.88
2018-04-01T21:04:40.011Z,97588.64
2018-04-01T21:07:07.602Z,97584.49
2018-04-01T21:09:35.374Z,97586.36
2018-04-01T21:12:02.973Z,97588.41
2018-04-01T21:14:30.684Z,97594.19
2018-04-01T21:16:58.363Z,97594.46
2018-04-01T21:19:25.981Z,97599.23
2018-04-01T21:21:53.615Z,97596.91
2018-04-01T21:24:21.339Z,97598.62
2018-04-01T21:26:48.921Z,97598.09
2018-04-01T21:29:17.058Z,97610.40
2018-04-01T21:31:45.022Z,97612.34
2018-04-01T21:34:12.590Z,97609.87
2018-04-01T21:36:40.246Z,97608.95
2018-04-01T21:39:08.719Z,97599.20
2018-04-01T21:41:36.315Z,97601.40
2018-04-01T21:44:03.971Z,97601.13
2018-04-01T21:46:31.676Z,97601.13
2018-04-01T21:48:59.325Z,97600.72
2018-04-01T21:51:26.955Z,97606.75
2018-04-01T21:53:54.865Z,97617.55
2018-04-01T21:56:22.504Z,97613.28
2018-04-01T21:58:50.084Z,97625.23
2018-04-01T22:01:17.749Z,97630.30
2018-04-01T22:03:45.314Z,97634.77
2018-04-01T22:06:12.893Z,97638.91
2018-04-01T22:08:40.521Z,97637.37
2018-04-01T22:11:08.100Z,97643.27
2018-04-01T22:13:35.691Z,97648.77
2018-04-01T22:16:03.598Z,97651.69
2018-04-01T22:18:31.168Z,97660.91
2018-04-01T22:20:58.734Z,97667.86
2018-04-01T22:23:26.354Z,97661.82
2018-04-01T22:25:53.929Z,97663.58
2018-04-01T22:28:21.500Z,97664.83
2018-04-01T22:30:49.225Z,97671.23
2018-04-01T22:33:16.792Z,97662.66
2018-04-01T22:35:44.396Z,97674.50
2018-04-01T22:38:12.724Z,97679.64
2018-04-01T22:40:40.945Z,97680.44
2018-04-01T22:43:08.570Z,97682.41
2018-04-01T22:45:36.182Z,97688.52
2018-04-01T22:48:03.797Z,97690.73
2018-04-01T22:50:31.357Z,97683.98
2018-04-01T22:52:59.040Z,97689.42
2018-04-01T22:55:26.610Z,97688.06
2018-04-01T22:57:54.200Z,97687.05
2018-04-01T23:00:21.925Z,97697.20
2018-04-01T23:02:49.576Z,97692.80
2018-04-01T23:05:17.196Z,97693.23
2018-04-01T23:07:44.989Z,97697.17
2018-04-01T23:10:12.568Z,97696.40
2018-04-01T23:12:40.141Z,97691.05
2018-04-01T23:15:07.868Z,97690.03
2018-04-01T23:17:35.674Z,97699.56
2018-04-01T23:20:03.304Z,97699.67
2018-04-01T23:22:30.993Z,97697.84
2018-04-01T23:24:58.563Z,97701.23
2018-04-01T23:27:26.206Z,97705.66
2018-04-01T23:29:53.929Z,97703.23
2018-04-01T23:32:21.490Z,97710.47
2018-04-01T23:34:49.064Z,97704.70
2018-04-01T23:37:16.702Z,97710.15
2018-04-01T23:39:44.304Z,97707.33
2018-04-01T23:42:11.875Z,97717.62
2018-04-01T23:44:39.601Z,97713.20
2018-04-01T23:47:07.167Z,97718.80
2018-04-01T23:49:34.748Z,97725.86
2018-04-01T23:52:02.369Z,97727.12
2018-04-01T23:54:29.999Z,97732.89
2018-04-01T23:56:57.630Z,97729.81
2018-04-01T23:59:25.310Z,97731.27
